sensor_id;sensor_type;location;lat;lon;timestamp;pressure;altitude;pressure_sealevel;temperature;humidity
72063;BME280;59929;43.546;-5.702;2022-09-02T00:01:50;101596.25;;;21.80;66.29
72063;BME280;59929;43.546;-5.702;2022-09-02T00:04:21;101598.22;;;21.74;66.52
72063;BME280;59929;43.546;-5.702;2022-09-02T00:06:49;101599.38;;;21.73;66.39
72063;BME280;59929;43.546;-5.702;2022-09-02T00:09:17;101595.41;;;21.79;66.40
72063;BME280;59929;43.546;-5.702;2022-09-02T00:11:45;101594.38;;;21.75;66.79
72063;BME280;59929;43.546;-5.702;2022-09-02T00:14:15;101593.47;;;21.80;66.79
72063;BME280;59929;43.546;-5.702;2022-09-02T00:16:42;101590.19;;;21.78;66.68
72063;BME280;59929;43.546;-5.702;2022-09-02T00:19:09;101591.59;;;21.75;66.60
72063;BME280;59929;43.546;-5.702;2022-09-02T00:21:35;101593.63;;;21.70;66.92
72063;BME280;59929;43.546;-5.702;2022-09-02T00:24:03;101601.63;;;21.71;66.99
72063;BME280;59929;43.546;-5.702;2022-09-02T00:26:29;101592.78;;;21.69;66.93
72063;BME280;59929;43.546;-5.702;2022-09-02T00:28:55;101589.13;;;21.50;67.65
72063;BME280;59929;43.546;-5.702;2022-09-02T00:31:22;101595.16;;;21.57;67.50
72063;BME280;59929;43.546;-5.702;2022-09-02T00:33:48;101592.56;;;21.42;67.65
72063;BME280;59929;43.546;-5.702;2022-09-02T00:36:16;101594.25;;;21.38;67.97
72063;BME280;59929;43.546;-5.702;2022-09-02T00:38:42;101587.97;;;21.33;68.08
72063;BME280;59929;43.546;-5.702;2022-09-02T00:41:10;101592.69;;;21.32;67.99
72063;BME280;59929;43.546;-5.702;2022-09-02T00:43:53;101589.59;;;21.34;68.06
72063;BME280;59929;43.546;-5.702;2022-09-02T00:46:24;101592.19;;;21.25;68.17
72063;BME280;59929;43.546;-5.702;2022-09-02T00:48:56;101587.38;;;21.12;68.51
72063;BME280;59929;43.546;-5.702;2022-09-02T00:51:24;101584.00;;;21.15;68.61
72063;BME280;59929;43.546;-5.702;2022-09-02T00:53:51;101575.13;;;21.18;68.36
72063;BME280;59929;43.546;-5.702;2022-09-02T00:56:22;101576.31;;;21.12;68.37
72063;BME280;59929;43.546;-5.702;2022-09-02T00:58:48;101569.72;;;21.08;68.09
72063;BME280;59929;43.546;-5.702;2022-09-02T01:01:15;101562.28;;;21.03;68.34
72063;BME280;59929;43.546;-5.702;2022-09-02T01:03:41;101562.56;;;21.02;68.30
72063;BME280;59929;43.546;-5.702;2022-09-02T01:06:10;101564.53;;;20.96;68.26
72063;BME280;59929;43.546;-5.702;2022-09-02T01:08:46;101558.66;;;21.08;67.70
72063;BME280;59929;43.546;-5.702;2022-09-02T01:11:13;101558.66;;;21.08;67.09
72063;BME280;59929;43.546;-5.702;2022-09-02T01:13:43;101555.06;;;21.08;66.92
72063;BME280;59929;43.546;-5.702;2022-09-02T01:18:57;101557.09;;;20.92;66.69
72063;BME280;59929;43.546;-5.702;2022-09-02T01:21:23;101552.81;;;20.81;66.88
72063;BME280;59929;43.546;-5.702;2022-09-02T01:23:50;101552.09;;;20.70;67.37
72063;BME280;59929;43.546;-5.702;2022-09-02T01:26:17;101550.09;;;20.76;67.25
72063;BME280;59929;43.546;-5.702;2022-09-02T01:28:43;101535.31;;;20.62;67.38
72063;BME280;59929;43.546;-5.702;2022-09-02T01:31:09;101550.97;;;20.71;67.48
72063;BME280;59929;43.546;-5.702;2022-09-02T01:33:34;101554.00;;;20.70;67.38
72063;BME280;59929;43.546;-5.702;2022-09-02T01:36:00;101543.59;;;20.62;67.69
72063;BME280;59929;43.546;-5.702;2022-09-02T01:38:28;101541.97;;;20.61;68.04
72063;BME280;59929;43.546;-5.702;2022-09-02T01:40:55;101553.34;;;20.54;68.63
72063;BME280;59929;43.546;-5.702;2022-09-02T01:43:23;101549.63;;;20.69;68.06
72063;BME280;59929;43.546;-5.702;2022-09-02T01:45:51;101532.31;;;20.58;68.10
72063;BME280;59929;43.546;-5.702;2022-09-02T01:48:18;101550.78;;;20.63;68.51
72063;BME280;59929;43.546;-5.702;2022-09-02T01:50:49;101546.31;;;20.67;68.20
72063;BME280;59929;43.546;-5.702;2022-09-02T01:53:15;101547.22;;;20.57;68.79
72063;BME280;59929;43.546;-5.702;2022-09-02T01:55:41;101552.00;;;20.47;69.43
72063;BME280;59929;43.546;-5.702;2022-09-02T01:58:08;101544.44;;;20.28;70.46
72063;BME280;59929;43.546;-5.702;2022-09-02T02:00:34;101537.28;;;20.27;70.48
72063;BME280;59929;43.546;-5.702;2022-09-02T02:03:00;101553.47;;;20.39;70.21
72063;BME280;59929;43.546;-5.702;2022-09-02T02:05:26;101546.28;;;20.38;70.31
72063;BME280;59929;43.546;-5.702;2022-09-02T02:07:51;101546.56;;;20.37;70.37
72063;BME280;59929;43.546;-5.702;2022-09-02T02:10:19;101547.72;;;20.31;70.85
72063;BME280;59929;43.546;-5.702;2022-09-02T02:12:45;101543.34;;;20.24;71.01
72063;BME280;59929;43.546;-5.702;2022-09-02T02:15:14;101542.53;;;20.24;71.19
72063;BME280;59929;43.546;-5.702;2022-09-02T02:17:41;101539.59;;;20.05;72.12
72063;BME280;59929;43.546;-5.702;2022-09-02T02:20:08;101534.34;;;20.04;72.13
72063;BME280;59929;43.546;-5.702;2022-09-02T02:22:34;101539.63;;;20.00;72.49
72063;BME280;59929;43.546;-5.702;2022-09-02T02:25:00;101537.50;;;19.87;72.96
72063;BME280;59929;43.546;-5.702;2022-09-02T02:27:26;101535.94;;;19.76;73.50
72063;BME280;59929;43.546;-5.702;2022-09-02T02:29:51;101534.50;;;19.84;73.23
72063;BME280;59929;43.546;-5.702;2022-09-02T02:32:17;101535.94;;;19.76;73.39
72063;BME280;59929;43.546;-5.702;2022-09-02T02:34:44;101538.94;;;19.75;73.42
72063;BME280;59929;43.546;-5.702;2022-09-02T02:37:11;101537.03;;;19.70;73.48
72063;BME280;59929;43.546;-5.702;2022-09-02T02:39:38;101542.63;;;19.60;73.93
72063;BME280;59929;43.546;-5.702;2022-09-02T02:42:05;101545.34;;;19.65;73.53
72063;BME280;59929;43.546;-5.702;2022-09-02T02:44:31;101539.06;;;19.60;73.83
72063;BME280;59929;43.546;-5.702;2022-09-02T02:46:57;101542.84;;;19.69;73.58
72063;BME280;59929;43.546;-5.702;2022-09-02T02:49:22;101540.91;;;19.69;73.41
72063;BME280;59929;43.546;-5.702;2022-09-02T02:51:48;101542.91;;;19.64;73.71
72063;BME280;59929;43.546;-5.702;2022-09-02T02:54:14;101542.66;;;19.55;74.25
72063;BME280;59929;43.546;-5.702;2022-09-02T02:56:40;101542.13;;;19.53;74.22
72063;BME280;59929;43.546;-5.702;2022-09-02T02:59:06;101542.97;;;19.43;74.34
72063;BME280;59929;43.546;-5.702;2022-09-02T03:01:32;101547.09;;;19.46;74.60
72063;BME280;59929;43.546;-5.702;2022-09-02T03:03:58;101542.72;;;19.40;74.96
72063;BME280;59929;43.546;-5.702;2022-09-02T03:06:24;101540.53;;;19.37;74.79
72063;BME280;59929;43.546;-5.702;2022-09-02T03:08:50;101538.56;;;19.42;74.68
72063;BME280;59929;43.546;-5.702;2022-09-02T03:11:18;101535.00;;;19.37;74.54
72063;BME280;59929;43.546;-5.702;2022-09-02T03:13:48;101537.78;;;19.37;74.26
72063;BME280;59929;43.546;-5.702;2022-09-02T03:16:13;101535.56;;;19.39;73.97
72063;BME280;59929;43.546;-5.702;2022-09-02T03:18:39;101527.81;;;19.31;74.24
72063;BME280;59929;43.546;-5.702;2022-09-02T03:21:07;101530.84;;;19.29;74.54
72063;BME280;59929;43.546;-5.702;2022-09-02T03:23:33;101533.41;;;19.16;74.90
72063;BME280;59929;43.546;-5.702;2022-09-02T03:25:59;101531.41;;;19.31;74.43
72063;BME280;59929;43.546;-5.702;2022-09-02T03:28:25;101532.81;;;19.19;74.63
72063;BME280;59929;43.546;-5.702;2022-09-02T03:30:50;101530.94;;;19.14;74.89
72063;BME280;59929;43.546;-5.702;2022-09-02T03:33:16;101531.22;;;19.08;75.11
72063;BME280;59929;43.546;-5.702;2022-09-02T03:35:43;101534.22;;;19.11;74.88
72063;BME280;59929;43.546;-5.702;2022-09-02T03:38:10;101530.38;;;19.02;75.39
72063;BME280;59929;43.546;-5.702;2022-09-02T03:40:37;101538.69;;;18.97;76.29
72063;BME280;59929;43.546;-5.702;2022-09-02T03:43:03;101534.81;;;18.98;76.17
72063;BME280;59929;43.546;-5.702;2022-09-02T03:45:29;101526.56;;;18.93;76.14
72063;BME280;59929;43.546;-5.702;2022-09-02T03:47:55;101535.09;;;18.97;75.82
72063;BME280;59929;43.546;-5.702;2022-09-02T03:50:26;101532.09;;;18.93;76.27
72063;BME280;59929;43.546;-5.702;2022-09-02T03:52:53;101534.56;;;19.00;76.05
72063;BME280;59929;43.546;-5.702;2022-09-02T03:55:20;101527.38;;;18.99;75.84
72063;BME280;59929;43.546;-5.702;2022-09-02T03:57:46;101528.19;;;19.04;75.64
72063;BME280;59929;43.546;-5.702;2022-09-02T04:00:14;101532.59;;;19.05;76.25
72063;BME280;59929;43.546;-5.702;2022-09-02T04:02:41;101529.25;;;19.08;75.64
72063;BME280;59929;43.546;-5.702;2022-09-02T04:05:08;101526.84;;;19.02;76.12
72063;BME280;59929;43.546;-5.702;2022-09-02T04:07:34;101527.38;;;18.99;75.97
72063;BME280;59929;43.546;-5.702;2022-09-02T04:10:00;101531.25;;;18.98;75.75
72063;BME280;59929;43.546;-5.702;2022-09-02T04:12:27;101532.34;;;18.97;75.61
72063;BME280;59929;43.546;-5.702;2022-09-02T04:14:52;101525.19;;;18.96;75.84
72063;BME280;59929;43.546;-5.702;2022-09-02T04:17:18;101523.56;;;18.85;76.34
72063;BME280;59929;43.546;-5.702;2022-09-02T04:19:44;101528.22;;;18.94;76.08
72063;BME280;59929;43.546;-5.702;2022-09-02T04:22:09;101526.56;;;18.93;75.93
72063;BME280;59929;43.546;-5.702;2022-09-02T04:24:35;101527.13;;;18.95;75.86
72063;BME280;59929;43.546;-5.702;2022-09-02T04:27:01;101517.47;;;18.98;75.80
72063;BME280;59929;43.546;-5.702;2022-09-02T04:29:27;101524.09;;;18.87;76.29
72063;BME280;59929;43.546;-5.702;2022-09-02T04:31:53;101516.38;;;18.89;76.45
72063;BME280;59929;43.546;-5.702;2022-09-02T04:34:18;101518.31;;;18.88;76.36
72063;BME280;59929;43.546;-5.702;2022-09-02T04:36:44;101520.25;;;18.78;77.13
72063;BME280;59929;43.546;-5.702;2022-09-02T04:39:11;101511.19;;;18.72;77.60
72063;BME280;59929;43.546;-5.702;2022-09-02T04:41:37;101514.78;;;18.73;77.23
72063;BME280;59929;43.546;-5.702;2022-09-02T04:44:03;101508.44;;;18.72;77.20
72063;BME280;59929;43.546;-5.702;2022-09-02T04:46:29;101507.59;;;18.72;77.12
72063;BME280;59929;43.546;-5.702;2022-09-02T04:48:55;101501.81;;;18.68;77.49
72063;BME280;59929;43.546;-5.702;2022-09-02T04:51:23;101506.25;;;18.64;77.76
72063;BME280;59929;43.546;-5.702;2022-09-02T04:53:50;101502.38;;;18.75;77.45
72063;BME280;59929;43.546;-5.702;2022-09-02T04:56:19;101502.63;;;18.79;76.93
72063;BME280;59929;43.546;-5.702;2022-09-02T04:58:46;101500.94;;;18.88;77.04
72063;BME280;59929;43.546;-5.702;2022-09-02T05:01:16;101500.94;;;18.98;76.61
72063;BME280;59929;43.546;-5.702;2022-09-02T05:03:43;101508.38;;;18.92;76.48
72063;BME280;59929;43.546;-5.702;2022-09-02T05:06:12;101495.44;;;18.88;77.45
72063;BME280;59929;43.546;-5.702;2022-09-02T05:08:38;101502.03;;;19.02;77.11
72063;BME280;59929;43.546;-5.702;2022-09-02T05:11:07;101499.81;;;18.99;77.11
72063;BME280;59929;43.546;-5.702;2022-09-02T05:13:34;101506.72;;;18.96;77.34
72063;BME280;59929;43.546;-5.702;2022-09-02T05:16:00;101498.69;;;19.05;77.54
72063;BME280;59929;43.546;-5.702;2022-09-02T05:18:26;101496.44;;;19.17;77.29
72063;BME280;59929;43.546;-5.702;2022-09-02T05:20:51;101505.25;;;19.19;76.78
72063;BME280;59929;43.546;-5.702;2022-09-02T05:23:17;101503.59;;;19.23;76.28
72063;BME280;59929;43.546;-5.702;2022-09-02T05:25:43;101495.91;;;19.15;76.47
72063;BME280;59929;43.546;-5.702;2022-09-02T05:28:09;101503.88;;;19.26;76.37
72063;BME280;59929;43.546;-5.702;2022-09-02T05:30:39;101509.38;;;19.26;75.79
72063;BME280;59929;43.546;-5.702;2022-09-02T05:33:06;101506.63;;;19.21;75.90
72063;BME280;59929;43.546;-5.702;2022-09-02T05:35:32;101508.00;;;19.19;76.11
72063;BME280;59929;43.546;-5.702;2022-09-02T05:37:58;101513.53;;;19.19;76.24
72063;BME280;59929;43.546;-5.702;2022-09-02T05:40:24;101511.06;;;19.17;76.43
72063;BME280;59929;43.546;-5.702;2022-09-02T05:42:50;101505.25;;;19.19;76.41
72063;BME280;59929;43.546;-5.702;2022-09-02T05:45:16;101515.44;;;19.23;75.96
72063;BME280;59929;43.546;-5.702;2022-09-02T05:47:42;101518.50;;;19.17;76.41
72063;BME280;59929;43.546;-5.702;2022-09-02T05:50:08;101518.25;;;19.18;76.78
72063;BME280;59929;43.546;-5.702;2022-09-02T05:52:34;101522.91;;;19.18;77.11
72063;BME280;59929;43.546;-5.702;2022-09-02T05:55:00;101529.50;;;19.22;76.60
72063;BME280;59929;43.546;-5.702;2022-09-02T05:57:28;101523.16;;;19.26;76.93
72063;BME280;59929;43.546;-5.702;2022-09-02T05:59:53;101523.97;;;19.32;76.15
72063;BME280;59929;43.546;-5.702;2022-09-02T06:02:22;101524.25;;;19.30;76.13
72063;BME280;59929;43.546;-5.702;2022-09-02T06:04:50;101531.44;;;19.36;76.30
72063;BME280;59929;43.546;-5.702;2022-09-02T06:07:20;101531.38;;;19.41;76.27
72063;BME280;59929;43.546;-5.702;2022-09-02T06:09:47;101522.03;;;19.42;76.04
72063;BME280;59929;43.546;-5.702;2022-09-02T06:12:14;101535.16;;;19.66;74.90
72063;BME280;59929;43.546;-5.702;2022-09-02T06:14:41;101535.66;;;19.73;74.62
72063;BME280;59929;43.546;-5.702;2022-09-02T06:17:07;101533.19;;;19.71;74.73
72063;BME280;59929;43.546;-5.702;2022-09-02T06:19:34;101530.44;;;19.66;75.04
72063;BME280;59929;43.546;-5.702;2022-09-02T06:22:01;101532.94;;;19.68;75.30
72063;BME280;59929;43.546;-5.702;2022-09-02T06:24:28;101528.13;;;19.88;74.61
72063;BME280;59929;43.546;-5.702;2022-09-02T06:26:56;101533.03;;;19.96;74.39
72063;BME280;59929;43.546;-5.702;2022-09-02T06:29:24;101536.59;;;20.02;74.16
72063;BME280;59929;43.546;-5.702;2022-09-02T06:31:50;101535.94;;;20.15;73.56
72063;BME280;59929;43.546;-5.702;2022-09-02T06:34:17;101532.31;;;20.24;73.26
72063;BME280;59929;43.546;-5.702;2022-09-02T06:36:45;101533.91;;;20.31;72.82
72063;BME280;59929;43.546;-5.702;2022-09-02T06:39:14;101537.19;;;20.38;72.33
72063;BME280;59929;43.546;-5.702;2022-09-02T06:41:42;101531.97;;;20.31;72.91
72063;BME280;59929;43.546;-5.702;2022-09-02T06:44:10;101528.44;;;20.25;72.56
72063;BME280;59929;43.546;-5.702;2022-09-02T06:46:39;101520.94;;;20.31;72.84
72063;BME280;59929;43.546;-5.702;2022-09-02T06:49:07;101532.63;;;20.52;72.21
72063;BME280;59929;43.546;-5.702;2022-09-02T06:51:39;101532.63;;;20.52;72.66
72063;BME280;59929;43.546;-5.702;2022-09-02T06:54:07;101535.22;;;20.72;71.60
72063;BME280;59929;43.546;-5.702;2022-09-02T06:56:34;101534.00;;;20.83;71.21
72063;BME280;59929;43.546;-5.702;2022-09-02T06:59:00;101543.66;;;20.85;71.04
72063;BME280;59929;43.546;-5.702;2022-09-02T07:01:28;101541.34;;;20.69;71.06
72063;BME280;59929;43.546;-5.702;2022-09-02T07:03:55;101546.59;;;20.94;70.51
72063;BME280;59929;43.546;-5.702;2022-09-02T07:06:44;101541.06;;;20.94;69.96
72063;BME280;59929;43.546;-5.702;2022-09-02T07:09:13;101545.19;;;20.96;69.97
72063;BME280;59929;43.546;-5.702;2022-09-02T07:11:39;101551.69;;;21.11;69.87
72063;BME280;59929;43.546;-5.702;2022-09-02T07:14:05;101547.59;;;21.08;69.65
72063;BME280;59929;43.546;-5.702;2022-09-02T07:16:34;101554.00;;;20.98;69.95
72063;BME280;59929;43.546;-5.702;2022-09-02T07:19:00;101550.72;;;20.96;70.16
72063;BME280;59929;43.546;-5.702;2022-09-02T07:21:28;101553.41;;;21.06;69.49
72063;BME280;59929;43.546;-5.702;2022-09-02T07:23:56;101558.66;;;21.08;69.25
72063;BME280;59929;43.546;-5.702;2022-09-02T07:26:23;101550.25;;;21.18;68.81
72063;BME280;59929;43.546;-5.702;2022-09-02T07:28:48;101556.53;;;21.24;67.51
72063;BME280;59929;43.546;-5.702;2022-09-02T07:31:15;101569.00;;;21.21;68.07
72063;BME280;59929;43.546;-5.702;2022-09-02T07:33:42;101560.19;;;21.19;66.67
72063;BME280;59929;43.546;-5.702;2022-09-02T07:36:10;101530.25;;;20.97;67.22
72063;BME280;59929;43.546;-5.702;2022-09-02T07:38:36;101552.25;;;21.36;66.75
72063;BME280;59929;43.546;-5.702;2022-09-02T07:41:03;101558.41;;;21.28;66.36
72063;BME280;59929;43.546;-5.702;2022-09-02T07:43:29;101558.31;;;21.38;65.75
72063;BME280;59929;43.546;-5.702;2022-09-02T07:45:57;101562.06;;;21.47;65.45
72063;BME280;59929;43.546;-5.702;2022-09-02T07:48:26;101561.41;;;21.55;64.96
72063;BME280;59929;43.546;-5.702;2022-09-02T07:50:53;101561.63;;;21.35;65.75
72063;BME280;59929;43.546;-5.702;2022-09-02T07:53:19;101557.78;;;21.36;65.52
72063;BME280;59929;43.546;-5.702;2022-09-02T07:55:45;101549.25;;;21.33;65.30
72063;BME280;59929;43.546;-5.702;2022-09-02T07:58:13;101545.22;;;21.44;65.07
72063;BME280;59929;43.546;-5.702;2022-09-02T08:00:39;101554.34;;;21.86;63.98
72063;BME280;59929;43.546;-5.702;2022-09-02T08:03:06;101547.66;;;21.93;62.64
72063;BME280;59929;43.546;-5.702;2022-09-02T08:05:33;101555.91;;;21.74;61.47
72063;BME280;59929;43.546;-5.702;2022-09-02T08:07:59;101557.47;;;21.61;61.69
72063;BME280;59929;43.546;-5.702;2022-09-02T08:10:25;101552.06;;;21.51;62.25
72063;BME280;59929;43.546;-5.702;2022-09-02T08:12:55;101559.66;;;21.17;62.33
72063;BME280;59929;43.546;-5.702;2022-09-02T08:15:23;101560.47;;;21.18;63.01
72063;BME280;59929;43.546;-5.702;2022-09-02T08:17:49;101571.13;;;21.29;63.20
72063;BME280;59929;43.546;-5.702;2022-09-02T08:20:15;101564.47;;;21.30;65.08
72063;BME280;59929;43.546;-5.702;2022-09-02T08:22:42;101568.84;;;21.36;65.33
72063;BME280;59929;43.546;-5.702;2022-09-02T08:25:08;101561.75;;;21.25;65.66
72063;BME280;59929;43.546;-5.702;2022-09-02T08:27:35;101559.81;;;21.26;65.03
72063;BME280;59929;43.546;-5.702;2022-09-02T08:30:06;101575.47;;;21.35;66.15
72063;BME280;59929;43.546;-5.702;2022-09-02T08:32:35;101570.78;;;21.59;65.65
72063;BME280;59929;43.546;-5.702;2022-09-02T08:35:01;101571.34;;;21.56;64.95
72063;BME280;59929;43.546;-5.702;2022-09-02T08:37:30;101575.56;;;21.72;64.93
72063;BME280;59929;43.546;-5.702;2022-09-02T08:39:56;101574.81;;;21.91;65.04
72063;BME280;59929;43.546;-5.702;2022-09-02T08:42:31;101576.63;;;22.19;64.28
72063;BME280;59929;43.546;-5.702;2022-09-02T08:45:11;101576.25;;;22.07;61.54
72063;BME280;59929;43.546;-5.702;2022-09-02T08:47:39;101575.56;;;22.15;61.89
72063;BME280;59929;43.546;-5.702;2022-09-02T08:50:12;101567.69;;;22.22;61.06
72063;BME280;59929;43.546;-5.702;2022-09-02T08:53:00;101571.13;;;22.32;61.61
72063;BME280;59929;43.546;-5.702;2022-09-02T08:55:35;101573.31;;;22.17;60.74
72063;BME280;59929;43.546;-5.702;2022-09-02T08:58:04;101582.69;;;22.21;60.94
72063;BME280;59929;43.546;-5.702;2022-09-02T09:00:40;101570.97;;;22.05;59.27
72063;BME280;59929;43.546;-5.702;2022-09-02T09:03:20;101586.34;;;22.16;59.69
72063;BME280;59929;43.546;-5.702;2022-09-02T09:06:01;101583.88;;;22.15;59.97
72063;BME280;59929;43.546;-5.702;2022-09-02T09:08:46;101576.09;;;22.35;59.75
72063;BME280;59929;43.546;-5.702;2022-09-02T09:11:25;101570.22;;;22.37;60.15
72063;BME280;59929;43.546;-5.702;2022-09-02T09:14:16;101564.81;;;22.64;58.27
72063;BME280;59929;43.546;-5.702;2022-09-02T09:17:09;101570.47;;;23.05;57.17
72063;BME280;59929;43.546;-5.702;2022-09-02T09:19:53;101566.53;;;22.92;56.88
72063;BME280;59929;43.546;-5.702;2022-09-02T09:22:24;101573.44;;;23.08;57.04
72063;BME280;59929;43.546;-5.702;2022-09-02T09:24:51;101572.56;;;23.26;57.22
72063;BME280;59929;43.546;-5.702;2022-09-02T09:27:19;101581.53;;;22.91;56.27
72063;BME280;59929;43.546;-5.702;2022-09-02T09:29:47;101582.91;;;22.75;55.72
72063;BME280;59929;43.546;-5.702;2022-09-02T09:32:25;101576.44;;;22.66;56.87
72063;BME280;59929;43.546;-5.702;2022-09-02T09:34:56;101574.34;;;22.58;56.96
72063;BME280;59929;43.546;-5.702;2022-09-02T09:37:46;101579.47;;;22.83;56.83
72063;BME280;59929;43.546;-5.702;2022-09-02T09:40:30;101581.41;;;22.83;55.26
72063;BME280;59929;43.546;-5.702;2022-09-02T09:43:11;101578.44;;;22.93;55.40
72063;BME280;59929;43.546;-5.702;2022-09-02T09:45:41;101560.38;;;22.95;54.73
72063;BME280;59929;43.546;-5.702;2022-09-02T09:48:32;101563.88;;;23.14;54.52
72063;BME280;59929;43.546;-5.702;2022-09-02T09:51:12;101573.34;;;23.27;55.08
72063;BME280;59929;43.546;-5.702;2022-09-02T09:53:39;101558.69;;;23.40;53.01
72063;BME280;59929;43.546;-5.702;2022-09-02T09:56:24;101565.13;;;23.76;52.73
72063;BME280;59929;43.546;-5.702;2022-09-02T09:58:52;101561.84;;;23.88;52.29
72063;BME280;59929;43.546;-5.702;2022-09-02T10:01:27;101557.00;;;24.29;52.39
72063;BME280;59929;43.546;-5.702;2022-09-02T10:04:24;101558.13;;;24.94;49.98
72063;BME280;59929;43.546;-5.702;2022-09-02T10:06:52;101552.88;;;25.24;49.09
72063;BME280;59929;43.546;-5.702;2022-09-02T10:09:35;101575.44;;;25.53;48.40
72063;BME280;59929;43.546;-5.702;2022-09-02T10:12:11;101565.91;;;25.15;48.35
72063;BME280;59929;43.546;-5.702;2022-09-02T10:14:43;101568.13;;;24.95;49.00
72063;BME280;59929;43.546;-5.702;2022-09-02T10:17:26;101569.97;;;25.09;48.48
72063;BME280;59929;43.546;-5.702;2022-09-02T10:20:19;101568.25;;;24.90;50.11
72063;BME280;59929;43.546;-5.702;2022-09-02T10:23:00;101576.91;;;24.67;51.18
72063;BME280;59929;43.546;-5.702;2022-09-02T10:31:30;101578.59;;;24.32;52.28
72063;BME280;59929;43.546;-5.702;2022-09-02T10:34:15;101586.06;;;24.23;51.91
72063;BME280;59929;43.546;-5.702;2022-09-02T10:37:11;101580.06;;;24.30;52.19
72063;BME280;59929;43.546;-5.702;2022-09-02T10:40:03;101580.50;;;24.45;52.15
72063;BME280;59929;43.546;-5.702;2022-09-02T10:54:27;101590.84;;;24.09;54.33
72063;BME280;59929;43.546;-5.702;2022-09-02T10:57:05;101585.22;;;24.22;53.66
72063;BME280;59929;43.546;-5.702;2022-09-02T10:59:43;101573.84;;;24.10;53.33
72063;BME280;59929;43.546;-5.702;2022-09-02T11:02:21;101571.56;;;24.12;53.00
72063;BME280;59929;43.546;-5.702;2022-09-02T11:04:53;101560.78;;;24.55;52.45
72063;BME280;59929;43.546;-5.702;2022-09-02T11:10:37;101557.00;;;25.04;50.65
72063;BME280;59929;43.546;-5.702;2022-09-02T11:13:18;101553.28;;;25.09;50.25
72063;BME280;59929;43.546;-5.702;2022-09-02T11:16:04;101550.53;;;25.17;49.19
72063;BME280;59929;43.546;-5.702;2022-09-02T11:18:38;101549.94;;;25.85;47.91
72063;BME280;59929;43.546;-5.702;2022-09-02T11:21:23;101556.88;;;26.13;46.75
72063;BME280;59929;43.546;-5.702;2022-09-02T11:23:59;101563.13;;;26.10;47.55
72063;BME280;59929;43.546;-5.702;2022-09-02T11:26:36;101563.78;;;26.24;47.38
72063;BME280;59929;43.546;-5.702;2022-09-02T11:29:11;101560.16;;;26.32;45.83
72063;BME280;59929;43.546;-5.702;2022-09-02T11:31:45;101562.31;;;26.27;45.98
72063;BME280;59929;43.546;-5.702;2022-09-02T11:34:33;101562.78;;;26.20;45.93
72063;BME280;59929;43.546;-5.702;2022-09-02T11:37:23;101553.59;;;26.20;46.39
72063;BME280;59929;43.546;-5.702;2022-09-02T11:39:57;101545.03;;;25.99;47.20
72063;BME280;59929;43.546;-5.702;2022-09-02T11:43:01;101547.88;;;26.08;47.29
72063;BME280;59929;43.546;-5.702;2022-09-02T11:45:46;101557.88;;;26.34;46.88
72063;BME280;59929;43.546;-5.702;2022-09-02T11:51:52;101566.34;;;25.95;47.90
72063;BME280;59929;43.546;-5.702;2022-09-02T11:54:25;101556.50;;;25.80;48.97
72063;BME280;59929;43.546;-5.702;2022-09-02T11:57:02;101561.13;;;26.02;48.77
72063;BME280;59929;43.546;-5.702;2022-09-02T12:02:44;101567.56;;;25.46;49.85
72063;BME280;59929;43.546;-5.702;2022-09-02T12:08:11;101562.94;;;25.42;52.30
72063;BME280;59929;43.546;-5.702;2022-09-02T12:10:58;101559.22;;;25.16;52.69
72063;BME280;59929;43.546;-5.702;2022-09-02T12:13:42;101568.63;;;24.53;53.78
72063;BME280;59929;43.546;-5.702;2022-09-02T12:16:34;101570.41;;;24.27;54.91
72063;BME280;59929;43.546;-5.702;2022-09-02T12:19:24;101572.31;;;23.91;55.69
72063;BME280;59929;43.546;-5.702;2022-09-02T12:22:21;101572.25;;;23.69;56.47
72063;BME280;59929;43.546;-5.702;2022-09-02T12:24:52;101574.72;;;23.57;56.24
72063;BME280;59929;43.546;-5.702;2022-09-02T12:27:34;101585.72;;;23.75;56.15
72063;BME280;59929;43.546;-5.702;2022-09-02T12:30:03;101571.50;;;23.90;56.23
72063;BME280;59929;43.546;-5.702;2022-09-02T12:35:49;101581.75;;;24.75;55.41
72063;BME280;59929;43.546;-5.702;2022-09-02T12:38:21;101581.59;;;24.58;54.61
72063;BME280;59929;43.546;-5.702;2022-09-02T12:41:06;101581.03;;;24.47;55.46
72063;BME280;59929;43.546;-5.702;2022-09-02T12:43:55;101589.94;;;24.36;54.96
72063;BME280;59929;43.546;-5.702;2022-09-02T12:46:47;101592.94;;;23.49;57.33
72063;BME280;59929;43.546;-5.702;2022-09-02T12:49:46;101585.34;;;23.41;58.49
72063;BME280;59929;43.546;-5.702;2022-09-02T12:52:37;101606.56;;;23.18;58.88
72063;BME280;59929;43.546;-5.702;2022-09-02T12:55:03;101603.22;;;22.89;60.61
72063;BME280;59929;43.546;-5.702;2022-09-02T12:57:42;101595.53;;;22.49;65.19
72063;BME280;59929;43.546;-5.702;2022-09-02T13:00:14;101610.22;;;22.12;66.49
72063;BME280;59929;43.546;-5.702;2022-09-02T13:02:58;101613.34;;;22.06;67.74
72063;BME280;59929;43.546;-5.702;2022-09-02T13:05:45;101611.88;;;21.95;67.16
72063;BME280;59929;43.546;-5.702;2022-09-02T13:11:40;101617.50;;;21.37;70.62
72063;BME280;59929;43.546;-5.702;2022-09-02T13:14:51;101627.75;;;21.60;71.65
72063;BME280;59929;43.546;-5.702;2022-09-02T13:17:35;101622.34;;;21.50;69.78
72063;BME280;59929;43.546;-5.702;2022-09-02T13:26:34;101624.47;;;21.58;69.49
72063;BME280;59929;43.546;-5.702;2022-09-02T13:32:12;101614.69;;;21.90;68.90
72063;BME280;59929;43.546;-5.702;2022-09-02T13:34:43;101615.53;;;21.90;68.55
72063;BME280;59929;43.546;-5.702;2022-09-02T13:37:36;101622.25;;;21.84;69.10
72063;BME280;59929;43.546;-5.702;2022-09-02T13:42:51;101629.78;;;22.21;67.29
72063;BME280;59929;43.546;-5.702;2022-09-02T13:45:20;101617.44;;;22.13;67.73
72063;BME280;59929;43.546;-5.702;2022-09-02T13:47:50;101626.84;;;22.31;67.28
72063;BME280;59929;43.546;-5.702;2022-09-02T13:50:21;101621.91;;;22.65;67.46
72063;BME280;59929;43.546;-5.702;2022-09-02T13:52:52;101632.81;;;22.75;67.25